createdAt,value
2018-01-10T00:00:07.224Z,21.4
2018-01-10T00:02:05.283Z,21.4
2018-01-10T00:04:04.675Z,21.4
2018-01-10T00:06:05.437Z,21.4
2018-01-10T00:08:04.816Z,21.4
2018-01-10T00:10:05.093Z,21.4
2018-01-10T00:12:05.610Z,21.4
2018-01-10T00:14:05.374Z,21.4
2018-01-10T00:16:04.738Z,21.4
2018-01-10T00:18:09.748Z,21.4
2018-01-10T00:20:08.063Z,21.4
2018-01-10T00:22:04.789Z,21.4
2018-01-10T00:24:05.674Z,21.4
2018-01-10T00:26:07.963Z,21.4
2018-01-10T00:28:07.273Z,21.4
2018-01-10T00:30:10.060Z,21.4
2018-01-10T00:32:07.355Z,21.4
2018-01-10T00:34:05.185Z,21.4
2018-01-10T00:36:04.970Z,21.4
2018-01-10T00:38:04.738Z,21.4
2018-01-10T00:40:05.530Z,21.4
2018-01-10T00:42:05.282Z,21.4
2018-01-10T00:44:05.124Z,21.4
2018-01-10T00:46:04.938Z,21.3
2018-01-10T00:48:04.714Z,21.4
2018-01-10T00:50:05.473Z,21.4
2018-01-10T00:52:05.302Z,21.4
2018-01-10T00:54:05.037Z,21.3
2018-01-10T00:56:07.356Z,21.3
2018-01-10T00:58:04.680Z,21.3
2018-01-10T01:00:05.478Z,21.4
2018-01-10T01:02:04.803Z,21.3
2018-01-10T01:04:05.573Z,21.3
2018-01-10T01:06:05.503Z,21.4
2018-01-10T01:08:05.279Z,21.3
2018-01-10T01:10:05.037Z,21.3
2018-01-10T01:12:05.431Z,21.3
2018-01-10T01:14:07.933Z,21.3
2018-01-10T01:16:05.274Z,21.3
2018-01-10T01:18:05.210Z,21.3
2018-01-10T01:20:07.513Z,21.3
2018-01-10T01:22:05.295Z,21.3
2018-01-10T01:24:05.092Z,21.3
2018-01-10T01:26:04.925Z,21.3
2018-01-10T01:28:05.341Z,21.3
2018-01-10T01:30:05.326Z,21.3
2018-01-10T01:32:05.414Z,21.3
2018-01-10T01:34:05.252Z,21.3
2018-01-10T01:36:05.050Z,21.3
2018-01-10T01:38:05.102Z,21.3
2018-01-10T01:40:04.889Z,21.3
2018-01-10T01:42:04.740Z,21.3
2018-01-10T01:44:05.575Z,21.3
2018-01-10T01:46:05.478Z,21.3
2018-01-10T01:48:05.302Z,21.3
2018-01-10T01:50:05.486Z,21.3
2018-01-10T01:52:05.270Z,21.3
2018-01-10T01:54:07.570Z,21.3
2018-01-10T01:56:05.319Z,21.4
2018-01-10T01:58:07.619Z,21.4
2018-01-10T02:00:05.399Z,21.3
2018-01-10T02:02:05.185Z,21.3
2018-01-10T02:04:04.980Z,21.3
2018-01-10T02:06:04.754Z,21.3
2018-01-10T02:08:05.694Z,21.4
2018-01-10T02:10:05.529Z,21.4
2018-01-10T02:12:07.839Z,21.3
2018-01-10T02:14:04.746Z,21.3
2018-01-10T02:16:05.493Z,21.4
2018-01-10T02:18:05.486Z,21.3
2018-01-10T02:20:07.830Z,21.4
2018-01-10T02:22:05.593Z,21.4
2018-01-10T02:24:04.870Z,21.4
2018-01-10T02:26:07.210Z,21.3
2018-01-10T02:28:04.943Z,21.3
2018-01-10T02:30:07.251Z,21.3
2018-01-10T02:32:05.103Z,21.3
2018-01-10T02:34:04.872Z,21.4
2018-01-10T02:36:04.679Z,21.3
2018-01-10T02:38:05.438Z,21.3
2018-01-10T02:40:07.714Z,21.3
2018-01-10T02:42:05.471Z,21.3
2018-01-10T02:44:05.219Z,21.3
2018-01-10T02:46:07.473Z,21.3
2018-01-10T02:48:05.232Z,21.3
2018-01-10T02:50:10.099Z,21.3
2018-01-10T02:52:04.855Z,21.3
2018-01-10T02:54:08.190Z,21.4
2018-01-10T02:56:05.506Z,21.3
2018-01-10T02:58:07.827Z,21.3
2018-01-10T03:00:07.196Z,21.3
2018-01-10T03:02:05.778Z,21.3
2018-01-10T03:04:05.587Z,21.3
2018-01-10T03:06:05.329Z,21.3
2018-01-10T03:08:10.479Z,21.4
2018-01-10T03:10:05.262Z,21.3
2018-01-10T03:12:04.980Z,21.3
2018-01-10T03:14:05.020Z,21.3
2018-01-10T03:16:07.328Z,21.3
2018-01-10T03:18:04.797Z,21.3
2018-01-10T03:20:08.417Z,21.3
2018-01-10T03:22:05.179Z,21.3
2018-01-10T03:24:05.489Z,21.3
2018-01-10T03:26:05.288Z,21.3
2018-01-10T03:28:05.541Z,21.3
2018-01-10T03:30:05.346Z,21.3
2018-01-10T03:32:04.944Z,21.3
2018-01-10T03:34:05.275Z,21.3
2018-01-10T03:36:05.039Z,21.3
2018-01-10T03:38:04.817Z,21.3
2018-01-10T03:40:05.592Z,21.3
2018-01-10T03:42:10.462Z,21.3
2018-01-10T03:44:07.760Z,21.3
2018-01-10T03:46:05.522Z,21.3
2018-01-10T03:48:04.799Z,21.3
2018-01-10T03:50:05.635Z,21.3
2018-01-10T03:52:07.942Z,21.3
2018-01-10T03:54:04.692Z,21.3
2018-01-10T03:56:08.280Z,21.3
2018-01-10T03:58:04.998Z,21.3
2018-01-10T04:00:07.271Z,21.3
2018-01-10T04:02:05.818Z,21.3
2018-01-10T04:04:05.430Z,21.3
2018-01-10T04:06:10.413Z,21.3
2018-01-10T04:08:17.312Z,21.3
2018-01-10T04:10:07.571Z,21.3
2018-01-10T04:12:05.282Z,21.3
2018-01-10T04:14:05.440Z,21.3
2018-01-10T04:16:04.744Z,21.3
2018-01-10T04:18:04.859Z,21.3
2018-01-10T04:20:05.281Z,21.3
2018-01-10T04:22:07.595Z,21.3
2018-01-10T04:24:15.486Z,21.3
2018-01-10T04:26:05.266Z,21.3
2018-01-10T04:28:05.105Z,21.3
2018-01-10T04:30:04.904Z,21.3
2018-01-10T04:32:07.223Z,21.3
2018-01-10T04:34:07.600Z,21.3
2018-01-10T04:36:07.939Z,21.3
2018-01-10T04:38:07.745Z,21.3
2018-01-10T04:40:05.456Z,21.3
2018-01-10T04:42:07.251Z,21.3
2018-01-10T04:44:05.583Z,21.3
2018-01-10T04:46:07.953Z,21.3
2018-01-10T04:48:07.330Z,21.3
2018-01-10T04:50:05.091Z,21.3
2018-01-10T04:52:04.838Z,21.3
2018-01-10T04:54:10.646Z,21.3
2018-01-10T04:56:05.515Z,21.3
2018-01-10T04:58:04.797Z,21.3
2018-01-10T05:00:05.539Z,21.3
2018-01-10T05:02:05.582Z,21.3
2018-01-10T05:04:05.337Z,21.3
2018-01-10T05:06:05.196Z,21.4
2018-01-10T05:08:04.987Z,21.3
2018-01-10T05:10:05.261Z,21.3
2018-01-10T05:12:05.032Z,21.3
2018-01-10T05:14:19.980Z,21.3
2018-01-10T05:16:09.801Z,21.4
2018-01-10T05:18:04.879Z,21.4
2018-01-10T05:20:10.720Z,21.3
2018-01-10T05:22:05.465Z,21.3
2018-01-10T05:24:04.752Z,21.3
2018-01-10T05:26:05.611Z,21.3
2018-01-10T05:28:05.396Z,21.3
2018-01-10T05:30:05.222Z,21.3
2018-01-10T05:32:05.004Z,21.3
2018-01-10T05:34:04.752Z,21.3
2018-01-10T05:36:15.515Z,21.3
2018-01-10T05:38:10.873Z,21.4
2018-01-10T05:40:05.178Z,21.4
2018-01-10T05:42:07.478Z,21.4
2018-01-10T05:44:05.787Z,21.3
2018-01-10T05:46:08.079Z,21.4
2018-01-10T05:48:04.829Z,21.3
2018-01-10T05:50:10.687Z,21.3
2018-01-10T05:52:05.021Z,21.3
2018-01-10T05:54:12.357Z,21.3
2018-01-10T05:56:05.126Z,21.3
2018-01-10T05:58:04.913Z,21.4
2018-01-10T06:00:04.648Z,21.4
2018-01-10T06:02:05.722Z,21.3
2018-01-10T06:04:05.486Z,21.4
2018-01-10T06:06:05.257Z,21.3
2018-01-10T06:08:20.081Z,21.3
2018-01-10T06:10:04.813Z,21.4
2018-01-10T06:12:05.540Z,21.3
2018-01-10T06:14:05.334Z,21.4
2018-01-10T06:16:10.144Z,21.3
2018-01-10T06:18:05.466Z,21.3
2018-01-10T06:20:05.343Z,21.3
2018-01-10T06:22:05.084Z,21.3
2018-01-10T06:24:04.997Z,21.3
2018-01-10T06:26:04.742Z,21.4
2018-01-10T06:28:05.542Z,21.3
2018-01-10T06:30:04.868Z,21.3
2018-01-10T06:32:04.640Z,21.3
2018-01-10T06:34:04.990Z,21.3
2018-01-10T06:36:04.834Z,21.3
2018-01-10T06:38:05.570Z,21.3
2018-01-10T06:40:05.346Z,21.3
2018-01-10T06:42:07.701Z,21.3
2018-01-10T06:44:07.983Z,21.3
2018-01-10T06:46:04.731Z,21.3
2018-01-10T06:48:05.497Z,21.3
2018-01-10T06:50:05.262Z,21.3
2018-01-10T06:52:05.042Z,21.3
2018-01-10T06:54:04.809Z,21.3
2018-01-10T06:56:05.577Z,21.3
2018-01-10T06:58:05.423Z,21.3
2018-01-10T07:00:05.252Z,21.3
2018-01-10T07:02:07.590Z,21.3
2018-01-10T07:04:05.431Z,21.3
2018-01-10T07:06:07.261Z,21.3
2018-01-10T07:08:10.121Z,21.3
2018-01-10T07:10:04.868Z,21.3
2018-01-10T07:12:05.169Z,21.3
2018-01-10T07:14:05.178Z,21.3
2018-01-10T07:16:10.261Z,21.3
2018-01-10T07:18:08.075Z,21.3
2018-01-10T07:20:04.821Z,21.3
2018-01-10T07:22:05.082Z,21.3
2018-01-10T07:24:04.900Z,21.3
2018-01-10T07:26:05.168Z,21.3
2018-01-10T07:28:05.096Z,21.3
2018-01-10T07:30:05.068Z,21.3
2018-01-10T07:32:05.301Z,21.3
2018-01-10T07:34:05.158Z,21.3
2018-01-10T07:36:05.461Z,21.3
2018-01-10T07:38:05.212Z,21.3
2018-01-10T07:40:10.086Z,21.3
2018-01-10T07:42:05.201Z,21.3
2018-01-10T07:44:05.539Z,21.3
2018-01-10T07:46:07.772Z,21.3
2018-01-10T07:48:05.494Z,21.3
2018-01-10T07:50:07.454Z,21.3
2018-01-10T07:52:05.309Z,21.3
2018-01-10T07:54:05.140Z,21.3
2018-01-10T07:56:04.900Z,21.3
2018-01-10T07:58:08.214Z,21.4
2018-01-10T08:00:05.559Z,21.3
2018-01-10T08:02:04.977Z,21.4
2018-01-10T08:04:04.901Z,21.4
2018-01-10T08:06:05.169Z,21.4
2018-01-10T08:08:05.036Z,21.4
2018-01-10T08:10:04.782Z,21.4
2018-01-10T08:12:05.837Z,21.4
2018-01-10T08:14:05.557Z,21.4
2018-01-10T08:16:05.350Z,21.4
2018-01-10T08:18:12.856Z,21.5
2018-01-10T08:20:07.632Z,21.5
2018-01-10T08:22:05.365Z,21.5
2018-01-10T08:24:05.194Z,21.5
2018-01-10T08:26:10.106Z,21.5
2018-01-10T08:28:04.852Z,21.5
2018-01-10T08:30:05.641Z,21.5
2018-01-10T08:32:05.627Z,21.5
2018-01-10T08:34:07.890Z,21.6
2018-01-10T08:36:04.944Z,21.6
2018-01-10T08:38:10.318Z,21.6
2018-01-10T08:40:05.097Z,21.6
2018-01-10T08:42:04.918Z,21.6
2018-01-10T08:44:04.735Z,21.6
2018-01-10T08:46:04.988Z,21.6
2018-01-10T08:48:05.336Z,21.6
2018-01-10T08:50:05.117Z,21.6
2018-01-10T08:52:04.884Z,21.6
2018-01-10T08:54:04.968Z,21.6
2018-01-10T08:56:04.802Z,21.6
2018-01-10T08:58:05.559Z,21.6
2018-01-10T09:00:05.348Z,21.6
2018-01-10T09:02:10.177Z,21.6
2018-01-10T09:04:05.581Z,21.6
2018-01-10T09:06:05.347Z,21.6
2018-01-10T09:08:05.134Z,21.6
2018-01-10T09:10:07.395Z,21.6
2018-01-10T09:12:05.123Z,21.6
2018-01-10T09:14:14.919Z,21.6
2018-01-10T09:16:20.462Z,21.6
2018-01-10T09:18:08.082Z,21.6
2018-01-10T09:20:04.869Z,21.5
2018-01-10T09:22:07.752Z,21.6
2018-01-10T09:24:12.713Z,21.6
2018-01-10T09:26:05.403Z,21.5
2018-01-10T09:28:05.650Z,21.6
2018-01-10T09:30:05.245Z,21.5
2018-01-10T09:32:05.513Z,21.6
2018-01-10T09:34:05.236Z,21.6
2018-01-10T09:36:10.096Z,21.5
2018-01-10T09:38:05.052Z,21.5
2018-01-10T09:40:05.406Z,21.5
2018-01-10T09:42:05.189Z,21.5
2018-01-10T09:44:05.249Z,21.5
2018-01-10T09:46:07.795Z,21.5
2018-01-10T09:48:05.604Z,21.5
2018-01-10T09:50:05.435Z,21.5
2018-01-10T09:52:05.202Z,21.5
2018-01-10T09:54:05.038Z,21.5
2018-01-10T09:56:07.368Z,21.5
2018-01-10T09:58:07.174Z,21.5
2018-01-10T10:00:04.955Z,21.5
2018-01-10T10:02:04.747Z,21.5
2018-01-10T10:04:10.528Z,21.5
2018-01-10T10:06:05.251Z,21.5
2018-01-10T10:08:04.983Z,21.5
2018-01-10T10:10:07.317Z,21.5
2018-01-10T10:12:05.092Z,21.5
2018-01-10T10:14:05.052Z,21.6
2018-01-10T10:16:05.324Z,21.6
2018-01-10T10:18:05.325Z,21.5
2018-01-10T10:20:05.153Z,21.6
2018-01-10T10:22:04.877Z,21.5
2018-01-10T10:24:05.171Z,21.6
2018-01-10T10:26:05.016Z,21.5
2018-01-10T10:28:04.789Z,21.5
2018-01-10T10:30:05.568Z,21.5
2018-01-10T10:32:07.893Z,21.5
2018-01-10T10:34:04.695Z,21.5
2018-01-10T10:36:10.513Z,21.6
2018-01-10T10:38:05.294Z,21.6
2018-01-10T10:40:05.072Z,21.6
2018-01-10T10:42:04.840Z,21.6
2018-01-10T10:44:08.155Z,21.6
2018-01-10T10:46:12.545Z,21.5
2018-01-10T10:48:05.311Z,21.6
2018-01-10T10:50:05.074Z,21.6
2018-01-10T10:52:04.843Z,21.5
2018-01-10T10:54:05.589Z,21.5
2018-01-10T10:56:05.376Z,21.6
2018-01-10T10:58:12.707Z,21.6
2018-01-10T11:00:05.517Z,21.6
2018-01-10T11:02:05.306Z,21.6
2018-01-10T11:04:10.127Z,21.6
2018-01-10T11:06:04.872Z,21.6
2018-01-10T11:08:13.187Z,21.7
2018-01-10T11:10:04.932Z,21.7
2018-01-10T11:12:05.215Z,21.7
2018-01-10T11:14:04.947Z,21.7
2018-01-10T11:16:04.760Z,21.7
2018-01-10T11:18:04.715Z,21.7
2018-01-10T11:20:05.485Z,21.7
2018-01-10T11:22:05.401Z,21.7
2018-01-10T11:24:05.164Z,21.7
2018-01-10T11:26:04.913Z,21.7
2018-01-10T11:28:07.186Z,21.7
2018-01-10T11:30:09.801Z,21.7
2018-01-10T11:32:05.109Z,21.7
2018-01-10T11:34:10.431Z,21.8
2018-01-10T11:36:05.159Z,21.7
2018-01-10T11:38:10.030Z,21.8
2018-01-10T11:40:04.766Z,21.8
2018-01-10T11:42:08.120Z,21.8
2018-01-10T11:44:05.460Z,21.7
2018-01-10T11:46:05.188Z,21.7
2018-01-10T11:48:07.547Z,21.7
2018-01-10T11:50:07.429Z,21.8
2018-01-10T11:52:10.244Z,21.7
2018-01-10T11:54:05.007Z,21.7
2018-01-10T11:56:05.335Z,21.8
2018-01-10T11:58:05.097Z,21.8
2018-01-10T12:00:10.391Z,21.8
2018-01-10T12:02:05.226Z,21.8
2018-01-10T12:04:04.940Z,21.7
2018-01-10T12:06:04.838Z,21.7
2018-01-10T12:08:08.155Z,21.7
2018-01-10T12:10:04.922Z,21.7
2018-01-10T12:12:07.959Z,21.7
2018-01-10T12:14:07.261Z,21.8
2018-01-10T12:16:05.041Z,21.8
2018-01-10T12:18:05.105Z,21.8
2018-01-10T12:20:04.904Z,21.7
2018-01-10T12:22:07.780Z,21.8
2018-01-10T12:24:05.523Z,21.8
2018-01-10T12:26:05.396Z,21.8
2018-01-10T12:28:05.142Z,21.8
2018-01-10T12:30:04.941Z,21.8
2018-01-10T12:32:04.731Z,21.8
2018-01-10T12:34:10.601Z,21.8
2018-01-10T12:36:05.370Z,21.8
2018-01-10T12:38:05.203Z,21.8
2018-01-10T12:40:04.962Z,21.8
2018-01-10T12:42:04.708Z,21.8
2018-01-10T12:44:05.466Z,21.8
2018-01-10T12:46:05.242Z,21.8
2018-01-10T12:48:07.505Z,21.8
2018-01-10T12:50:05.330Z,21.8
2018-01-10T12:52:07.313Z,21.8
2018-01-10T12:54:07.693Z,21.8
2018-01-10T12:56:05.546Z,21.8
2018-01-10T12:58:10.018Z,21.8
2018-01-10T13:00:04.767Z,21.8
2018-01-10T13:02:05.547Z,21.8
2018-01-10T13:04:10.455Z,21.8
2018-01-10T13:06:05.233Z,21.8
2018-01-10T13:08:05.067Z,21.8
2018-01-10T13:10:05.349Z,21.8
2018-01-10T13:12:05.154Z,21.8
2018-01-10T13:14:04.984Z,21.8
2018-01-10T13:16:04.778Z,21.8
2018-01-10T13:18:05.199Z,21.8
2018-01-10T13:20:04.967Z,21.8
2018-01-10T13:22:07.303Z,21.8
2018-01-10T13:24:17.748Z,21.8
2018-01-10T13:26:05.515Z,21.8
2018-01-10T13:28:05.331Z,21.8
2018-01-10T13:30:05.162Z,21.8
2018-01-10T13:32:04.888Z,21.8
2018-01-10T13:34:05.145Z,21.8
2018-01-10T13:36:05.466Z,21.8
2018-01-10T13:38:04.761Z,21.8
2018-01-10T13:40:05.055Z,21.7
2018-01-10T13:42:04.806Z,21.8
2018-01-10T13:44:05.532Z,21.7
2018-01-10T13:46:05.288Z,21.7
2018-01-10T13:48:07.587Z,21.8
2018-01-10T13:50:07.881Z,21.7
2018-01-10T13:52:07.210Z,21.7
2018-01-10T13:54:04.918Z,21.7
2018-01-10T13:56:04.759Z,21.7
2018-01-10T13:58:05.532Z,21.7
2018-01-10T14:00:05.524Z,21.7
2018-01-10T14:02:05.263Z,21.7
2018-01-10T14:04:05.328Z,21.7
2018-01-10T14:06:12.760Z,21.7
2018-01-10T14:08:05.657Z,21.7
2018-01-10T14:10:05.017Z,21.7
2018-01-10T14:12:04.804Z,21.8
2018-01-10T14:14:05.231Z,21.8
2018-01-10T14:16:05.059Z,21.8
2018-01-10T14:18:07.558Z,21.8
2018-01-10T14:20:05.427Z,21.8
2018-01-10T14:22:05.176Z,21.8
2018-01-10T14:24:05.137Z,21.8
2018-01-10T14:26:04.958Z,21.8
2018-01-10T14:28:04.717Z,21.8
2018-01-10T14:30:05.571Z,21.8
2018-01-10T14:32:05.382Z,21.8
2018-01-10T14:34:05.289Z,21.8
2018-01-10T14:36:07.241Z,21.8
2018-01-10T14:38:05.036Z,21.8
2018-01-10T14:40:04.863Z,21.8
2018-01-10T14:42:05.613Z,21.8
2018-01-10T14:44:05.149Z,21.8
2018-01-10T14:46:05.481Z,21.8
2018-01-10T14:48:05.279Z,21.8
2018-01-10T14:50:05.097Z,21.9
2018-01-10T14:52:04.900Z,21.8
2018-01-10T14:54:05.216Z,21.8
2018-01-10T14:56:05.605Z,21.8
2018-01-10T14:58:05.511Z,21.8
2018-01-10T15:00:05.243Z,21.8
2018-01-10T15:02:05.006Z,21.8
2018-01-10T15:04:08.170Z,21.9
2018-01-10T15:06:05.706Z,21.9
2018-01-10T15:08:05.454Z,21.9
2018-01-10T15:10:12.810Z,21.9
2018-01-10T15:12:05.645Z,21.9
2018-01-10T15:14:05.481Z,21.9
2018-01-10T15:16:05.307Z,21.9
2018-01-10T15:18:05.299Z,21.9
2018-01-10T15:20:05.138Z,21.9
2018-01-10T15:22:05.496Z,21.9
2018-01-10T15:24:05.249Z,21.9
2018-01-10T15:26:04.986Z,21.9
2018-01-10T15:28:07.334Z,21.9
2018-01-10T15:30:05.109Z,21.9
2018-01-10T15:32:07.963Z,21.9
2018-01-10T15:34:08.232Z,21.9
2018-01-10T15:36:05.056Z,21.9
2018-01-10T15:38:04.834Z,21.9
2018-01-10T15:40:05.584Z,22
2018-01-10T15:42:05.417Z,22
2018-01-10T15:44:05.178Z,22
2018-01-10T15:46:04.916Z,22
2018-01-10T15:48:10.345Z,22
2018-01-10T15:50:04.703Z,22.1
2018-01-10T15:52:05.462Z,22
2018-01-10T15:54:05.221Z,22
2018-01-10T15:56:04.960Z,22
2018-01-10T15:58:05.231Z,22
2018-01-10T16:00:05.028Z,22
2018-01-10T16:02:04.809Z,22
2018-01-10T16:04:04.628Z,22
2018-01-10T16:06:07.614Z,22
2018-01-10T16:08:05.768Z,22
2018-01-10T16:10:05.146Z,22
2018-01-10T16:12:04.962Z,21.9
2018-01-10T16:14:05.264Z,21.9
2018-01-10T16:16:05.010Z,21.9
2018-01-10T16:18:10.067Z,21.9
2018-01-10T16:20:05.295Z,21.9
2018-01-10T16:22:05.074Z,21.9
2018-01-10T16:24:04.814Z,21.9
2018-01-10T16:26:05.749Z,22
2018-01-10T16:28:05.088Z,21.9
2018-01-10T16:30:07.982Z,21.9
2018-01-10T16:32:04.718Z,21.9
2018-01-10T16:34:05.689Z,21.9
2018-01-10T16:36:05.534Z,21.9
2018-01-10T16:38:06.076Z,21.9
2018-01-10T16:40:04.547Z,21.9
2018-01-10T16:42:05.412Z,21.9
2018-01-10T16:44:05.400Z,21.9
2018-01-10T16:46:05.227Z,21.9
2018-01-10T16:48:06.372Z,21.9
2018-01-10T16:50:05.172Z,21.9
2018-01-10T16:52:04.926Z,21.9
2018-01-10T16:54:04.738Z,21.8
2018-01-10T16:56:05.586Z,21.7
2018-01-10T16:58:04.908Z,21.6
2018-01-10T17:00:07.212Z,21.6
2018-01-10T17:02:05.486Z,21.6
2018-01-10T17:04:05.343Z,21.6
2018-01-10T17:06:05.092Z,21.5
2018-01-10T17:08:04.814Z,21.4
2018-01-10T17:10:04.624Z,21.3
2018-01-10T17:12:05.436Z,21.2
2018-01-10T17:14:05.177Z,21.1
2018-01-10T17:16:04.976Z,21.1
2018-01-10T17:18:05.456Z,21
2018-01-10T17:20:04.763Z,20.9
2018-01-10T17:22:04.550Z,20.9
2018-01-10T17:24:13.030Z,20.9
2018-01-10T17:26:05.401Z,20.9
2018-01-10T17:28:05.148Z,20.9
2018-01-10T17:30:04.853Z,20.9
2018-01-10T17:32:04.687Z,20.9
2018-01-10T17:34:05.023Z,20.9
2018-01-10T17:36:04.790Z,20.9
2018-01-10T17:38:12.136Z,20.9
2018-01-10T17:40:04.954Z,20.9
2018-01-10T17:42:07.342Z,20.9
2018-01-10T17:44:05.090Z,20.9
2018-01-10T17:46:04.955Z,20.9
2018-01-10T17:48:04.763Z,20.9
2018-01-10T17:50:05.117Z,20.9
2018-01-10T17:52:07.419Z,21
2018-01-10T17:54:04.852Z,21
2018-01-10T17:56:04.726Z,21
2018-01-10T17:58:07.245Z,21
2018-01-10T18:00:05.060Z,20.9
2018-01-10T18:02:05.395Z,21
2018-01-10T18:04:05.311Z,20.9
2018-01-10T18:06:05.157Z,20.9
2018-01-10T18:08:12.496Z,21
2018-01-10T18:10:05.498Z,20.9
2018-01-10T18:12:09.847Z,21
2018-01-10T18:14:05.209Z,21
2018-01-10T18:16:07.586Z,21.1
2018-01-10T18:18:05.120Z,21.1
2018-01-10T18:20:05.415Z,21.1
2018-01-10T18:22:07.894Z,21.2
2018-01-10T18:24:13.040Z,21.2
2018-01-10T18:26:05.540Z,21.2
2018-01-10T18:28:05.144Z,21.2
2018-01-10T18:30:05.553Z,21.2
2018-01-10T18:32:10.089Z,21.3
2018-01-10T18:34:04.948Z,21.3
2018-01-10T18:36:04.893Z,21.3
2018-01-10T18:38:07.211Z,21.3
2018-01-10T18:40:05.334Z,21.3
2018-01-10T18:42:04.712Z,21.3
2018-01-10T18:44:08.298Z,21.4
2018-01-10T18:46:07.555Z,21.4
2018-01-10T18:48:05.481Z,21.4
2018-01-10T18:50:06.288Z,21.4
2018-01-10T18:52:04.770Z,21.5
2018-01-10T18:54:13.101Z,21.5
2018-01-10T18:56:04.942Z,21.5
2018-01-10T18:58:04.722Z,21.6
2018-01-10T19:00:05.693Z,21.6
2018-01-10T19:02:07.928Z,21.6
2018-01-10T19:04:04.974Z,21.6
2018-01-10T19:06:05.280Z,21.7
2018-01-10T19:08:05.059Z,21.7
2018-01-10T19:10:04.878Z,21.7
2018-01-10T19:12:04.638Z,21.7
2018-01-10T19:14:10.466Z,21.9
2018-01-10T19:16:05.235Z,21.8
2018-01-10T19:18:05.179Z,21.9
2018-01-10T19:20:04.930Z,21.9
2018-01-10T19:22:13.704Z,22
2018-01-10T19:24:05.564Z,22
2018-01-10T19:26:05.300Z,22
2018-01-10T19:28:05.106Z,22
2018-01-10T19:30:04.864Z,22
2018-01-10T19:32:04.663Z,22
2018-01-10T19:34:05.402Z,22
2018-01-10T19:36:04.686Z,22
2018-01-10T19:38:05.493Z,22
2018-01-10T19:40:07.828Z,22.1
2018-01-10T19:42:05.583Z,22.1
2018-01-10T19:44:05.338Z,22.1
2018-01-10T19:46:05.296Z,22.1
2018-01-10T19:48:05.068Z,22.1
2018-01-10T19:50:05.310Z,22.1
2018-01-10T19:52:07.554Z,22.1
2018-01-10T19:54:07.388Z,22.2
2018-01-10T19:56:05.187Z,22.1
2018-01-10T19:58:10.060Z,22.1
2018-01-10T20:00:04.860Z,22.1
2018-01-10T20:02:05.651Z,22.1
2018-01-10T20:04:05.779Z,22.1
2018-01-10T20:06:05.591Z,22.1
2018-01-10T20:08:05.611Z,22.1
2018-01-10T20:10:07.460Z,22.1
2018-01-10T20:12:05.364Z,22.1
2018-01-10T20:14:07.653Z,22.1
2018-01-10T20:16:05.438Z,22.1
2018-01-10T20:18:10.552Z,22.1
2018-01-10T20:20:04.847Z,22.1
2018-01-10T20:22:08.148Z,22.1
2018-01-10T20:24:12.924Z,22.1
2018-01-10T20:26:05.024Z,22.1
2018-01-10T20:28:04.728Z,22.1
2018-01-10T20:30:05.488Z,22.1
2018-01-10T20:32:05.399Z,22.2
2018-01-10T20:34:10.401Z,22.2
2018-01-10T20:36:05.395Z,22.2
2018-01-10T20:38:05.481Z,22.2
2018-01-10T20:40:05.457Z,22.2
2018-01-10T20:42:05.089Z,22.2
2018-01-10T20:44:04.884Z,22.2
2018-01-10T20:46:05.685Z,22.2
2018-01-10T20:48:05.510Z,22.2
2018-01-10T20:50:05.247Z,22.2
2018-01-10T20:52:05.001Z,22.2
2018-01-10T20:54:04.828Z,22.3
2018-01-10T20:56:05.622Z,22.4
2018-01-10T20:58:05.427Z,22.3
2018-01-10T21:00:05.393Z,22.4
2018-01-10T21:02:05.390Z,22.4
2018-01-10T21:04:05.571Z,22.4
2018-01-10T21:06:05.491Z,22.5
2018-01-10T21:08:05.296Z,22.4
2018-01-10T21:10:06.393Z,22.5
2018-01-10T21:12:07.508Z,22.5
2018-01-10T21:14:05.667Z,22.5
2018-01-10T21:16:05.442Z,22.5
2018-01-10T21:18:05.454Z,22.5
2018-01-10T21:20:07.877Z,22.6
2018-01-10T21:22:05.020Z,22.6
2018-01-10T21:24:04.830Z,22.6
2018-01-10T21:26:05.170Z,22.6
2018-01-10T21:28:08.056Z,22.6
2018-01-10T21:30:05.353Z,22.6
2018-01-10T21:32:05.081Z,22.6
2018-01-10T21:34:04.865Z,22.6
2018-01-10T21:36:04.768Z,22.6
2018-01-10T21:38:05.518Z,22.7
2018-01-10T21:40:04.858Z,22.6
2018-01-10T21:42:05.661Z,22.6
2018-01-10T21:44:05.587Z,22.5
2018-01-10T21:46:05.008Z,22.5
2018-01-10T21:48:07.915Z,22.5
2018-01-10T21:50:07.535Z,22.4
2018-01-10T21:52:04.851Z,22.5
2018-01-10T21:54:04.674Z,22.4
2018-01-10T21:56:05.622Z,22.4
2018-01-10T21:58:07.962Z,22.4
2018-01-10T22:00:04.720Z,22.4
2018-01-10T22:02:08.032Z,22.3
2018-01-10T22:04:04.786Z,22.4
2018-01-10T22:06:05.550Z,22.3
2018-01-10T22:08:20.499Z,22.3
2018-01-10T22:10:08.904Z,22.3
2018-01-10T22:12:05.290Z,22.3
2018-01-10T22:14:05.105Z,22.3
2018-01-10T22:16:07.529Z,22.2
2018-01-10T22:18:05.598Z,22.2
2018-01-10T22:20:05.605Z,22.2
2018-01-10T22:22:04.888Z,22.2
2018-01-10T22:24:04.696Z,22.2
2018-01-10T22:26:05.479Z,22.2
2018-01-10T22:28:07.815Z,22.2
2018-01-10T22:30:04.668Z,22.2
2018-01-10T22:32:05.530Z,22.2
2018-01-10T22:34:05.472Z,22.2
2018-01-10T22:36:05.277Z,22.1
2018-01-10T22:38:05.060Z,22.2
2018-01-10T22:40:04.846Z,22.1
2018-01-10T22:42:08.138Z,22.2
2018-01-10T22:44:05.492Z,22.2
2018-01-10T22:46:04.765Z,22.2
2018-01-10T22:48:05.149Z,22.2
2018-01-10T22:50:04.917Z,22.2
2018-01-10T22:52:04.804Z,22.2
2018-01-10T22:54:05.712Z,22.2
2018-01-10T22:56:07.423Z,22.2
2018-01-10T22:58:05.284Z,22.2
2018-01-10T23:00:13.127Z,22.1
2018-01-10T23:02:04.957Z,22.2
2018-01-10T23:04:05.250Z,22.1
2018-01-10T23:06:05.009Z,22.1
2018-01-10T23:08:04.817Z,22.1
2018-01-10T23:10:05.546Z,22.1
2018-01-10T23:12:07.861Z,22.1
2018-01-10T23:14:04.694Z,22.1
2018-01-10T23:16:05.547Z,22.1
2018-01-10T23:18:05.527Z,22.1
2018-01-10T23:20:05.413Z,22.1
2018-01-10T23:22:05.300Z,22.1
2018-01-10T23:24:12.826Z,22.1
2018-01-10T23:26:10.185Z,22.1
2018-01-10T23:28:07.474Z,22.1
2018-01-10T23:30:07.793Z,22.1
2018-01-10T23:32:08.112Z,22.1
2018-01-10T23:34:05.398Z,22.1
2018-01-10T23:36:10.315Z,22
2018-01-10T23:38:05.274Z,22
2018-01-10T23:40:05.293Z,22
2018-01-10T23:42:05.216Z,22
2018-01-10T23:44:05.503Z,22
2018-01-10T23:46:05.353Z,22
2018-01-10T23:48:05.111Z,22
2018-01-10T23:50:07.583Z,22
2018-01-10T23:52:05.398Z,22
2018-01-10T23:54:04.766Z,22
2018-01-10T23:56:08.077Z,22
2018-01-10T23:58:07.421Z,22
